createdAt,value
2022-12-11T00:05:06.730Z,0.21
2022-12-11T00:10:22.524Z,0.19
2022-12-11T00:15:47.619Z,0.21
2022-12-11T00:21:20.206Z,0.19
2022-12-11T00:26:27.625Z,0.17
2022-12-11T00:31:34.485Z,0.17
2022-12-11T00:36:41.823Z,0.16
2022-12-11T00:41:49.410Z,0.13
2022-12-11T00:46:56.337Z,0.14
2022-12-11T00:52:03.222Z,0.14
2022-12-11T00:57:10.087Z,0.15
2022-12-11T01:02:17.196Z,0.15
2022-12-11T01:07:24.844Z,0.12
2022-12-11T01:12:31.745Z,0.12
2022-12-11T01:17:39.123Z,0.14
2022-12-11T01:22:46.113Z,0.13
2022-12-11T01:27:55.290Z,0.12
2022-12-11T01:33:02.510Z,0.11
2022-12-11T01:38:10.795Z,0.10
2022-12-11T01:43:17.929Z,0.08
2022-12-11T01:48:28.789Z,0.07
2022-12-11T01:53:43.663Z,0.05
2022-12-11T01:58:55.089Z,0.05
2022-12-11T02:04:03.313Z,0.03
2022-12-11T02:09:14.165Z,0.02
2022-12-11T02:14:33.815Z,-0.01
2022-12-11T02:19:59.680Z,-0.01
2022-12-11T02:25:19.064Z,-0.02
2022-12-11T02:30:26.974Z,-0.05
2022-12-11T02:35:41.174Z,-0.07
2022-12-11T02:40:53.252Z,-0.07
2022-12-11T02:46:01.872Z,-0.09
2022-12-11T02:51:13.732Z,-0.11
2022-12-11T02:56:28.242Z,-0.11
2022-12-11T03:01:37.851Z,-0.13
2022-12-11T03:06:51.027Z,-0.12
2022-12-11T03:11:58.049Z,-0.15
2022-12-11T03:17:14.518Z,-0.16
2022-12-11T03:22:26.446Z,-0.18
2022-12-11T03:27:40.030Z,-0.21
2022-12-11T03:32:52.743Z,-0.21
2022-12-11T03:38:03.231Z,-0.24
2022-12-11T03:43:12.387Z,-0.25
2022-12-11T03:48:22.327Z,-0.31
2022-12-11T03:53:30.250Z,-0.34
2022-12-11T03:58:37.491Z,-0.36
2022-12-11T04:03:45.676Z,-0.34
2022-12-11T04:08:53.243Z,-0.35
2022-12-11T04:14:26.973Z,-0.38
2022-12-11T04:19:51.912Z,-0.38
2022-12-11T04:24:59.410Z,-0.36
2022-12-11T04:30:09.204Z,-0.37
2022-12-11T04:35:17.245Z,-0.36
2022-12-11T04:40:25.816Z,-0.36
2022-12-11T04:45:33.274Z,-0.36
2022-12-11T04:50:40.466Z,-0.37
2022-12-11T04:55:47.700Z,-0.39
2022-12-11T05:00:57.721Z,-0.40
2022-12-11T05:06:05.288Z,-0.42
2022-12-11T05:11:14.441Z,-0.45
2022-12-11T05:16:21.843Z,-0.47
2022-12-11T05:21:34.657Z,-0.49
2022-12-11T05:26:42.933Z,-0.50
2022-12-11T05:31:50.263Z,-0.51
2022-12-11T05:36:57.337Z,-0.52
2022-12-11T05:42:04.538Z,-0.53
2022-12-11T05:47:12.622Z,-0.54
2022-12-11T05:52:20.183Z,-0.55
2022-12-11T05:57:27.286Z,-0.57
2022-12-11T06:02:37.911Z,-0.59
2022-12-11T06:07:47.734Z,-0.58
2022-12-11T06:12:54.936Z,-0.60
2022-12-11T06:18:02.053Z,-0.58
2022-12-11T06:23:09.633Z,-0.60
2022-12-11T06:28:18.399Z,-0.63
2022-12-11T06:33:25.816Z,-0.64
2022-12-11T06:38:33.121Z,-0.65
2022-12-11T06:43:42.985Z,-0.67
2022-12-11T06:48:50.982Z,-0.67
2022-12-11T06:53:59.698Z,-0.69
2022-12-11T06:59:07.739Z,-0.71
2022-12-11T07:04:15.017Z,-0.70
2022-12-11T07:09:23.065Z,-0.68
2022-12-11T07:14:30.650Z,-0.70
2022-12-11T07:19:37.688Z,-0.68
2022-12-11T07:24:44.772Z,-0.68
2022-12-11T07:29:56.263Z,-0.68
2022-12-11T07:35:03.436Z,-0.66
2022-12-11T07:40:13.962Z,-0.66
2022-12-11T07:45:21.013Z,-0.69
2022-12-11T07:50:28.034Z,-0.68
2022-12-11T07:55:36.034Z,-0.69
2022-12-11T08:00:45.019Z,-0.72
2022-12-11T08:05:53.528Z,-0.78
2022-12-11T08:11:14.770Z,-0.82
2022-12-11T08:16:25.614Z,-0.85
2022-12-11T08:21:32.577Z,-0.87
2022-12-11T08:26:39.779Z,-0.90
2022-12-11T08:31:46.974Z,-0.91
2022-12-11T08:36:54.221Z,-0.93
2022-12-11T08:42:01.158Z,-0.94
2022-12-11T08:47:09.910Z,-0.95
2022-12-11T08:52:17.006Z,-0.98
2022-12-11T08:57:24.034Z,-1.01
2022-12-11T09:02:31.256Z,-1.01
2022-12-11T09:07:39.075Z,-1.04
2022-12-11T09:12:46.057Z,-1.10
2022-12-11T09:17:53.275Z,-1.14
2022-12-11T09:23:02.777Z,-1.12
2022-12-11T09:28:10.207Z,-1.10
2022-12-11T09:33:17.637Z,-1.09
2022-12-11T09:38:24.887Z,-1.10
2022-12-11T09:43:43.585Z,-1.10
2022-12-11T09:48:53.692Z,-1.10
2022-12-11T09:54:04.204Z,-1.09
2022-12-11T09:59:24.212Z,-1.08
2022-12-11T10:04:44.931Z,-1.12
2022-12-11T10:10:00.141Z,-1.13
2022-12-11T10:15:32.509Z,-1.13
2022-12-11T10:20:42.869Z,-1.15
2022-12-11T10:25:55.386Z,-1.16
2022-12-11T10:31:12.136Z,-1.17
2022-12-11T10:36:26.885Z,-1.19
2022-12-11T10:41:41.300Z,-1.17
2022-12-11T10:46:49.313Z,-1.13
2022-12-11T10:51:58.114Z,-1.12
2022-12-11T10:57:07.042Z,-1.12
2022-12-11T11:02:24.597Z,-1.12
2022-12-11T11:07:33.498Z,-1.15
2022-12-11T11:12:44.378Z,-1.17
2022-12-11T11:17:55.789Z,-1.18
2022-12-11T11:23:06.366Z,-1.22
2022-12-11T11:28:21.917Z,-1.27
2022-12-11T11:33:29.702Z,-1.30
2022-12-11T11:38:40.435Z,-1.34
2022-12-11T11:43:50.193Z,-1.35
2022-12-11T11:49:06.375Z,-1.36
2022-12-11T11:54:25.630Z,-1.39
2022-12-11T11:59:36.018Z,-1.40
2022-12-11T12:04:52.560Z,-1.41
2022-12-11T12:10:16.379Z,-1.40
2022-12-11T12:15:36.809Z,-1.39
2022-12-11T12:20:49.762Z,-1.38
2022-12-11T12:26:11.813Z,-1.38
2022-12-11T12:31:43.750Z,-1.35
2022-12-11T12:37:01.231Z,-1.36
2022-12-11T12:42:18.868Z,-1.37
2022-12-11T12:47:28.171Z,-1.38
2022-12-11T12:52:41.358Z,-1.40
2022-12-11T12:57:57.776Z,-1.40
2022-12-11T13:03:20.623Z,-1.42
2022-12-11T13:08:50.183Z,-1.43
2022-12-11T13:14:06.547Z,-1.43
2022-12-11T13:19:42.698Z,-1.44
2022-12-11T13:24:59.824Z,-1.46
2022-12-11T13:30:26.624Z,-1.46
2022-12-11T13:35:44.102Z,-1.47
2022-12-11T13:41:00.173Z,-1.50
2022-12-11T13:46:12.993Z,-1.54
2022-12-11T13:51:29.201Z,-1.56
2022-12-11T13:56:41.290Z,-1.57
2022-12-11T14:01:50.859Z,-1.58
2022-12-11T14:07:02.518Z,-1.58
2022-12-11T14:12:20.261Z,-1.58
2022-12-11T14:17:31.162Z,-1.61
2022-12-11T14:22:45.238Z,-1.62
2022-12-11T14:28:01.966Z,-1.60
2022-12-11T14:33:13.952Z,-1.61
2022-12-11T14:38:29.340Z,-1.60
2022-12-11T14:43:51.725Z,-1.63
2022-12-11T14:49:07.533Z,-1.63
2022-12-11T14:54:31.166Z,-1.64
2022-12-11T14:59:50.095Z,-1.64
2022-12-11T15:05:18.385Z,-1.66
2022-12-11T15:10:37.602Z,-1.71
2022-12-11T15:15:53.973Z,-1.75
2022-12-11T15:21:12.966Z,-1.78
2022-12-11T15:26:36.680Z,-1.80
2022-12-11T15:31:49.885Z,-1.82
2022-12-11T15:37:01.478Z,-1.82
2022-12-11T15:42:20.546Z,-1.85
2022-12-11T15:47:34.356Z,-1.88
2022-12-11T15:52:51.356Z,-1.91
2022-12-11T15:58:08.692Z,-1.93
2022-12-11T16:03:26.740Z,-1.97
2022-12-11T16:08:41.597Z,-2.00
2022-12-11T16:13:51.377Z,-2.00
2022-12-11T16:18:59.981Z,-2.01
2022-12-11T16:24:14.894Z,-2.00
2022-12-11T16:29:24.115Z,-2.00
2022-12-11T16:34:35.116Z,-2.00
2022-12-11T16:39:56.118Z,-1.98
2022-12-11T16:45:14.863Z,-1.97
2022-12-11T16:50:32.424Z,-1.97
2022-12-11T16:55:56.864Z,-1.99
2022-12-11T17:01:15.642Z,-2.00
2022-12-11T17:06:34.211Z,-2.01
2022-12-11T17:11:53.877Z,-2.02
2022-12-11T17:17:11.084Z,-2.01
2022-12-11T17:22:23.087Z,-2.00
2022-12-11T17:27:38.982Z,-1.99
2022-12-11T17:32:52.269Z,-1.95
2022-12-11T17:38:04.952Z,-1.94
2022-12-11T17:43:24.232Z,-1.95
2022-12-11T17:48:38.984Z,-1.96
2022-12-11T17:53:50.815Z,-1.97
2022-12-11T17:59:07.613Z,-1.97
2022-12-11T18:04:28.933Z,-1.98
2022-12-11T18:09:58.426Z,-1.98
2022-12-11T18:15:09.537Z,-1.97
2022-12-11T18:20:24.031Z,-1.97
2022-12-11T18:25:40.035Z,-1.97
2022-12-11T18:30:49.062Z,-1.96
2022-12-11T18:35:59.873Z,-1.95
2022-12-11T18:41:11.793Z,-1.96
2022-12-11T18:46:24.963Z,-1.96
2022-12-11T18:51:33.722Z,-1.97
2022-12-11T18:56:42.382Z,-1.96
2022-12-11T19:01:56.049Z,-1.97
2022-12-11T19:07:04.905Z,-1.97
2022-12-11T19:12:16.719Z,-1.98
2022-12-11T19:17:31.462Z,-1.99
2022-12-11T19:22:39.782Z,-1.99
2022-12-11T19:27:50.641Z,-2.01
2022-12-11T19:32:58.539Z,-2.02
2022-12-11T19:38:05.807Z,-2.02
2022-12-11T19:43:14.456Z,-2.02
2022-12-11T19:48:24.694Z,-2.05
2022-12-11T19:53:34.928Z,-2.06
2022-12-11T19:58:45.735Z,-2.06
2022-12-11T20:03:54.824Z,-2.06
2022-12-11T20:09:24.745Z,-2.07
2022-12-11T20:14:42.787Z,-2.07
2022-12-11T20:19:53.582Z,-2.06
2022-12-11T20:25:01.285Z,-2.07
2022-12-11T20:30:18.424Z,-2.07
2022-12-11T20:35:27.845Z,-2.06
2022-12-11T20:40:46.119Z,-2.05
2022-12-11T20:45:54.863Z,-2.04
2022-12-11T20:51:09.438Z,-2.02
2022-12-11T20:56:21.658Z,-2.01
2022-12-11T21:01:35.166Z,-2.01
2022-12-11T21:07:00.078Z,-2.00
2022-12-11T21:12:15.087Z,-2.00
2022-12-11T21:17:49.044Z,-1.98
2022-12-11T21:23:22.796Z,-1.98
2022-12-11T21:28:44.378Z,-1.98
2022-12-11T21:33:56.488Z,-1.97
2022-12-11T21:39:06.150Z,-1.98
2022-12-11T21:49:45.383Z,-1.99
2022-12-11T21:54:58.422Z,-2.01
2022-12-11T22:00:13.368Z,-2.01
2022-12-11T22:18:45.595Z,-2.05
2022-12-11T22:23:54.187Z,-2.05
2022-12-11T22:29:02.293Z,-2.05
2022-12-11T22:34:16.801Z,-2.04
2022-12-11T22:39:39.493Z,-2.04
2022-12-11T22:44:47.458Z,-2.04
2022-12-11T22:50:04.881Z,-2.04
2022-12-11T22:55:18.399Z,-2.06
2022-12-11T23:00:42.488Z,-2.06
2022-12-11T23:06:01.974Z,-2.04
2022-12-11T23:11:16.578Z,-2.04
2022-12-11T23:16:26.014Z,-2.04
2022-12-11T23:21:36.061Z,-2.02
2022-12-11T23:26:45.043Z,-2.03
2022-12-11T23:31:55.476Z,-2.03
2022-12-11T23:37:05.380Z,-2.04
2022-12-11T23:42:14.892Z,-2.03
2022-12-11T23:47:22.225Z,-2.03
2022-12-11T23:52:33.868Z,-2.03
2022-12-11T23:57:43.592Z,-2.02
